Time;durP1;ratioP1;P1;durP2;ratioP2;P2;SDS_P1;SDS_P2;PMS_P1;PMS_P2;Temp;Humidity;BMP_temperature;BMP_pressure;BME280_temperature;BME280_humidity;BME280_pressure;Samples;Min_cycle;Max_cycle;Signal;HPM_P1;HPM_P2
2022/03/17 00:01:38;;;;;;;25.75;21.20;;;;;;;;;;5133513;27;20027;-76
2022/03/17 00:04:04;;;;;;;27.85;19.88;;;;;;;;;;5115099;27;20019;-76
2022/03/17 00:06:30;;;;;;;25.58;19.27;;;;;;;;;;5133128;27;20046;-76
2022/03/17 00:08:56;;;;;;;28.67;21.77;;;;;;;;;;5131956;27;20027;-76
2022/03/17 00:11:23;;;;;;;30.23;21.75;;;;;;;;;;5114894;27;20102;-76
2022/03/17 00:13:49;;;;;;;45.97;30.85;;;;;;;;;;5133607;27;20512;-76
2022/03/17 00:16:15;;;;;;;38.10;24.17;;;;;;;;;;5133302;27;20054;-76
2022/03/17 00:18:41;;;;;;;35.40;22.25;;;;;;;;;;5114804;27;20027;-75
2022/03/17 00:21:07;;;;;;;23.35;15.52;;;;;;;;;;5133179;27;20035;-76
2022/03/17 00:23:33;;;;;;;37.10;23.65;;;;;;;;;;5132507;27;20110;-75
2022/03/17 00:26:00;;;;;;;54.50;32.65;;;;;;;;;;5112463;27;20474;-77
2022/03/17 00:28:26;;;;;;;34.03;22.55;;;;;;;;;;5115943;27;20031;-76
2022/03/17 00:30:52;;;;;;;25.17;19.17;;;;;;;;;;5106625;27;20038;-77
2022/03/17 00:33:18;;;;;;;27.35;21.15;;;;;;;;;;5114549;28;20027;-78
2022/03/17 00:35:44;;;;;;;30.35;23.23;;;;;;;;;;5132660;27;20090;-77
2022/03/17 00:38:13;;;;;;;30.77;23.58;;;;;;;;;;5114122;27;20053;-76
2022/03/17 00:40:40;;;;;;;35.83;24.17;;;;;;;;;;5114443;27;20079;-77
2022/03/17 00:43:08;;;;;;;34.95;23.30;;;;;;;;;;5132947;27;20593;-77
2022/03/17 00:45:34;;;;;;;38.60;24.20;;;;;;;;;;5114447;28;20019;-77
2022/03/17 00:48:00;;;;;;;35.72;24.65;;;;;;;;;;5114453;28;20470;-77
2022/03/17 00:50:26;;;;;;;31.10;24.10;;;;;;;;;;5114392;28;20023;-77
2022/03/17 00:52:53;;;;;;;35.60;28.00;;;;;;;;;;5114316;28;20454;-77
2022/03/17 00:55:19;;;;;;;38.08;27.05;;;;;;;;;;5114444;28;20023;-77
2022/03/17 00:57:46;;;;;;;30.92;21.63;;;;;;;;;;5114294;28;20114;-79
2022/03/17 01:00:15;;;;;;;32.53;24.67;;;;;;;;;;5114143;28;20077;-77
2022/03/17 01:02:45;;;;;;;39.35;26.13;;;;;;;;;;5114203;28;20411;-76
2022/03/17 01:05:11;;;;;;;35.50;25.02;;;;;;;;;;5133023;28;20023;-77
2022/03/17 01:07:37;;;;;;;31.60;24.88;;;;;;;;;;5114030;28;20024;-77
2022/03/17 01:10:04;;;;;;;31.58;22.52;;;;;;;;;;5114253;28;20032;-76
2022/03/17 01:12:31;;;;;;;30.15;22.95;;;;;;;;;;5132663;28;20011;-77
2022/03/17 01:14:57;;;;;;;34.70;26.15;;;;;;;;;;5102002;28;20024;-76
2022/03/17 01:17:23;;;;;;;28.58;20.42;;;;;;;;;;5093820;28;20024;-76
2022/03/17 01:19:49;;;;;;;24.23;17.33;;;;;;;;;;5112036;28;20040;-76
2022/03/17 01:22:16;;;;;;;25.52;16.02;;;;;;;;;;5094764;28;20024;-77
2022/03/17 01:24:42;;;;;;;25.27;18.33;;;;;;;;;;5113708;28;20023;-77
2022/03/17 01:27:08;;;;;;;25.70;17.92;;;;;;;;;;5132204;28;20448;-77
2022/03/17 01:29:35;;;;;;;25.73;14.73;;;;;;;;;;5132623;28;20019;-78
2022/03/17 01:32:01;;;;;;;25.67;19.60;;;;;;;;;;5113330;28;20024;-77
2022/03/17 01:34:28;;;;;;;23.17;15.77;;;;;;;;;;5113393;28;20208;-77
2022/03/17 01:36:54;;;;;;;30.55;23.45;;;;;;;;;;5132084;28;20015;-77
2022/03/17 01:39:20;;;;;;;30.48;24.27;;;;;;;;;;5110309;28;20093;-77
2022/03/17 01:41:46;;;;;;;32.55;25.05;;;;;;;;;;5110529;28;20069;-77
2022/03/17 01:44:12;;;;;;;31.73;25.63;;;;;;;;;;5112064;28;20022;-78
2022/03/17 01:49:23;;;;;;;32.88;24.65;;;;;;;;;;5112875;28;20410;-76
2022/03/17 01:51:49;;;;;;;38.33;29.25;;;;;;;;;;5115164;28;20026;-76
2022/03/17 01:54:19;;;;;;;34.25;27.58;;;;;;;;;;5115407;28;20044;-76
2022/03/17 01:56:45;;;;;;;34.50;26.48;;;;;;;;;;5115506;28;20039;-76
2022/03/17 01:59:11;;;;;;;34.38;25.10;;;;;;;;;;5114040;28;20024;-77
2022/03/17 02:01:38;;;;;;;33.83;25.27;;;;;;;;;;5113923;28;20454;-76
2022/03/17 02:04:05;;;;;;;36.50;28.95;;;;;;;;;;5113924;28;20470;-76
2022/03/17 02:06:32;;;;;;;35.60;28.02;;;;;;;;;;5115152;28;20020;-77
2022/03/17 02:08:58;;;;;;;34.83;27.80;;;;;;;;;;5113934;28;20020;-77
2022/03/17 02:14:08;;;;;;;36.55;27.42;;;;;;;;;;5115082;28;20070;-76
2022/03/17 02:16:35;;;;;;;35.92;26.75;;;;;;;;;;5115235;28;20020;-76
2022/03/17 02:19:01;;;;;;;37.30;27.27;;;;;;;;;;5114990;28;20020;-78
2022/03/17 02:21:29;;;;;;;32.72;26.58;;;;;;;;;;5113944;28;20050;-76
2022/03/17 02:26:41;;;;;;;39.80;29.98;;;;;;;;;;5114865;28;20117;-76
2022/03/17 02:29:07;;;;;;;40.38;30.08;;;;;;;;;;5114805;28;20016;-76
2022/03/17 02:31:34;;;;;;;38.08;29.55;;;;;;;;;;5114767;28;20016;-76
2022/03/17 02:34:00;;;;;;;38.92;30.25;;;;;;;;;;5113488;28;20390;-77
2022/03/17 02:36:28;;;;;;;37.42;28.17;;;;;;;;;;5113318;28;20012;-78
2022/03/17 02:38:54;;;;;;;39.33;30.67;;;;;;;;;;5120235;27;20164;-77
2022/03/17 02:41:23;;;;;;;38.42;29.25;;;;;;;;;;5135071;27;20039;-76
2022/03/17 02:43:52;;;;;;;37.90;28.90;;;;;;;;;;5135105;27;20023;-76
2022/03/17 02:46:21;;;;;;;39.80;30.67;;;;;;;;;;5116514;27;20051;-77
2022/03/17 02:48:47;;;;;;;37.67;30.38;;;;;;;;;;5116489;27;20020;-76
2022/03/17 02:51:14;;;;;;;39.35;31.75;;;;;;;;;;5134851;27;20025;-77
2022/03/17 02:53:40;;;;;;;39.53;30.60;;;;;;;;;;5134566;27;20019;-77
2022/03/17 02:56:06;;;;;;;42.45;30.98;;;;;;;;;;5134582;27;20019;-77
2022/03/17 02:58:32;;;;;;;42.08;34.80;;;;;;;;;;5134611;27;20016;-76
2022/03/17 03:00:58;;;;;;;45.70;32.25;;;;;;;;;;5115874;27;21072;-77
2022/03/17 03:03:25;;;;;;;43.35;33.25;;;;;;;;;;5134416;27;20016;-77
2022/03/17 03:05:51;;;;;;;44.53;34.30;;;;;;;;;;5116164;27;21025;-76
2022/03/17 03:08:17;;;;;;;37.47;30.67;;;;;;;;;;5134728;27;20047;-76
2022/03/17 03:10:44;;;;;;;43.28;32.67;;;;;;;;;;5134320;27;20016;-76
2022/03/17 03:13:10;;;;;;;39.53;31.13;;;;;;;;;;5116079;27;20030;-78
2022/03/17 03:15:36;;;;;;;40.95;33.08;;;;;;;;;;5115975;27;20019;-77
2022/03/17 03:18:02;;;;;;;42.45;33.60;;;;;;;;;;5115943;27;20114;-77
2022/03/17 03:20:29;;;;;;;41.30;31.13;;;;;;;;;;5134040;27;20462;-77
2022/03/17 03:22:55;;;;;;;45.67;34.72;;;;;;;;;;5115735;27;20470;-76
2022/03/17 03:25:22;;;;;;;39.38;29.45;;;;;;;;;;5115939;27;20114;-77
2022/03/17 03:27:48;;;;;;;40.70;31.65;;;;;;;;;;5115798;27;20023;-77
2022/03/17 03:30:14;;;;;;;40.20;31.95;;;;;;;;;;5096991;28;20111;-77
2022/03/17 03:32:42;;;;;;;37.97;27.23;;;;;;;;;;5113348;28;20130;-78
2022/03/17 03:37:53;;;;;;;37.25;28.80;;;;;;;;;;5113212;28;20030;-77
2022/03/17 03:40:19;;;;;;;35.63;29.40;;;;;;;;;;5094818;28;20056;-78
2022/03/17 03:42:45;;;;;;;42.38;33.13;;;;;;;;;;5113508;28;20028;-77
2022/03/17 03:45:11;;;;;;;40.10;31.80;;;;;;;;;;5113560;28;20023;-77
2022/03/17 03:47:37;;;;;;;42.08;31.95;;;;;;;;;;5113256;28;20077;-77
2022/03/17 03:50:04;;;;;;;38.92;30.15;;;;;;;;;;5113210;28;20027;-77
2022/03/17 03:52:30;;;;;;;41.25;29.85;;;;;;;;;;5094786;28;20024;-77
2022/03/17 03:54:56;;;;;;;41.95;31.20;;;;;;;;;;5113089;28;20138;-77
2022/03/17 03:57:22;;;;;;;41.00;29.80;;;;;;;;;;5113067;28;20023;-76
2022/03/17 03:59:48;;;;;;;41.05;30.02;;;;;;;;;;5094459;28;20050;-77
2022/03/17 04:02:14;;;;;;;37.00;29.45;;;;;;;;;;5112992;28;20065;-77
2022/03/17 04:04:41;;;;;;;39.40;30.33;;;;;;;;;;5112914;28;20057;-77
2022/03/17 04:07:08;;;;;;;42.03;32.63;;;;;;;;;;5094609;28;20026;-77
2022/03/17 04:09:38;;;;;;;40.75;31.98;;;;;;;;;;5112897;28;20043;-77
2022/03/17 04:12:05;;;;;;;39.80;32.17;;;;;;;;;;5093827;28;20363;-77
2022/03/17 04:14:31;;;;;;;41.08;33.03;;;;;;;;;;5094435;28;20073;-77
2022/03/17 04:16:58;;;;;;;39.55;27.65;;;;;;;;;;5094464;28;20412;-77
2022/03/17 04:19:24;;;;;;;53.35;35.72;;;;;;;;;;5094400;28;20023;-76
2022/03/17 04:21:51;;;;;;;45.08;32.55;;;;;;;;;;5094457;28;20126;-77
2022/03/17 04:24:17;;;;;;;50.83;35.47;;;;;;;;;;5094328;28;20027;-77
2022/03/17 04:26:44;;;;;;;47.15;34.25;;;;;;;;;;5094340;28;20024;-77
2022/03/17 04:29:10;;;;;;;40.33;30.52;;;;;;;;;;5094225;28;20505;-77
2022/03/17 04:31:40;;;;;;;42.72;32.22;;;;;;;;;;5094196;28;20023;-76
2022/03/17 04:34:07;;;;;;;43.60;34.05;;;;;;;;;;5112504;28;20028;-76
2022/03/17 04:36:33;;;;;;;40.97;30.35;;;;;;;;;;5112304;28;20023;-76
2022/03/17 04:39:00;;;;;;;44.03;36.22;;;;;;;;;;5111924;28;20036;-76
2022/03/17 04:41:27;;;;;;;65.45;45.00;;;;;;;;;;5112226;28;20505;-77
2022/03/17 04:43:54;;;;;;;66.78;46.88;;;;;;;;;;5112360;28;20048;-77
2022/03/17 04:46:20;;;;;;;85.53;55.95;;;;;;;;;;5094114;28;20023;-76
2022/03/17 04:48:46;;;;;;;128.20;78.90;;;;;;;;;;5094066;28;20051;-76
2022/03/17 04:51:13;;;;;;;61.03;44.30;;;;;;;;;;5124437;28;20027;-77
2022/03/17 04:53:39;;;;;;;63.90;44.92;;;;;;;;;;5114386;28;20454;-76
2022/03/17 04:56:12;;;;;;;53.85;40.50;;;;;;;;;;5132796;28;20032;-78
2022/03/17 04:58:43;;;;;;;55.63;41.05;;;;;;;;;;5133090;28;20031;-77
2022/03/17 05:01:09;;;;;;;55.22;38.55;;;;;;;;;;5122896;28;20039;-76
2022/03/17 05:03:36;;;;;;;52.95;39.60;;;;;;;;;;5093291;28;20043;-76
2022/03/17 05:06:03;;;;;;;79.43;54.85;;;;;;;;;;5093354;28;20019;-77
2022/03/17 05:08:29;;;;;;;92.78;62.78;;;;;;;;;;5111568;28;20471;-76
2022/03/17 05:10:55;;;;;;;64.90;44.35;;;;;;;;;;5114900;28;20023;-76
2022/03/17 05:13:22;;;;;;;52.55;40.40;;;;;;;;;;5113020;28;20019;-75
2022/03/17 05:15:49;;;;;;;55.22;42.42;;;;;;;;;;5121928;28;20020;-77
2022/03/17 05:18:15;;;;;;;55.45;40.75;;;;;;;;;;5117968;28;20121;-75
2022/03/17 05:20:41;;;;;;;55.67;42.67;;;;;;;;;;5117816;28;20095;-75
2022/03/17 05:23:09;;;;;;;54.35;39.65;;;;;;;;;;5117732;27;20018;-75
2022/03/17 05:25:36;;;;;;;53.25;39.42;;;;;;;;;;5115111;28;20016;-76
2022/03/17 05:28:02;;;;;;;51.33;40.30;;;;;;;;;;5108266;27;20031;-76
2022/03/17 05:30:28;;;;;;;68.35;48.33;;;;;;;;;;5132818;27;20468;-76
2022/03/17 05:32:55;;;;;;;59.33;40.72;;;;;;;;;;5101958;28;20035;-75
2022/03/17 05:35:21;;;;;;;53.00;40.40;;;;;;;;;;5114998;28;20016;-75
2022/03/17 05:37:48;;;;;;;58.80;41.38;;;;;;;;;;5115832;28;20024;-76
2022/03/17 05:40:15;;;;;;;56.42;40.25;;;;;;;;;;5115349;28;20051;-76
2022/03/17 05:42:46;;;;;;;56.95;40.90;;;;;;;;;;5128423;27;20034;-75
2022/03/17 05:45:12;;;;;;;63.47;44.63;;;;;;;;;;5136114;27;20094;-76
2022/03/17 05:47:42;;;;;;;102.07;66.13;;;;;;;;;;5114686;28;20489;-76
2022/03/17 05:50:09;;;;;;;112.68;75.45;;;;;;;;;;5115213;27;20035;-75
2022/03/17 05:52:38;;;;;;;113.68;70.95;;;;;;;;;;5117280;27;20027;-76
2022/03/17 05:55:04;;;;;;;102.50;66.13;;;;;;;;;;5096786;27;20023;-75
2022/03/17 05:57:31;;;;;;;100.90;65.40;;;;;;;;;;5114895;28;20019;-76
2022/03/17 05:59:57;;;;;;;101.78;64.25;;;;;;;;;;5121049;27;20513;-75
2022/03/17 06:02:23;;;;;;;108.72;65.95;;;;;;;;;;5121384;27;20038;-75
2022/03/17 06:04:49;;;;;;;121.80;69.30;;;;;;;;;;5096681;28;20015;-75
2022/03/17 06:07:15;;;;;;;118.38;70.45;;;;;;;;;;5096869;28;20028;-76
2022/03/17 06:09:41;;;;;;;71.85;49.45;;;;;;;;;;5113917;28;20024;-76
2022/03/17 06:12:08;;;;;;;82.63;54.75;;;;;;;;;;5119985;27;20446;-76
2022/03/17 06:14:35;;;;;;;79.15;51.50;;;;;;;;;;5133418;27;20023;-77
2022/03/17 06:17:01;;;;;;;87.80;52.83;;;;;;;;;;5102963;28;20073;-75
2022/03/17 06:19:27;;;;;;;84.45;60.15;;;;;;;;;;5117637;27;20156;-77
2022/03/17 06:21:53;;;;;;;81.82;52.58;;;;;;;;;;5127984;27;20043;-76
2022/03/17 06:24:19;;;;;;;79.03;51.47;;;;;;;;;;5118399;27;20019;-77
2022/03/17 06:26:45;;;;;;;77.45;53.03;;;;;;;;;;5115026;28;20471;-75
2022/03/17 06:29:11;;;;;;;78.60;53.92;;;;;;;;;;5109657;27;20027;-76
2022/03/17 06:31:38;;;;;;;70.35;50.35;;;;;;;;;;5105654;28;20414;-76
2022/03/17 06:34:06;;;;;;;68.85;44.22;;;;;;;;;;5116258;27;20084;-76
2022/03/17 06:36:32;;;;;;;64.35;45.28;;;;;;;;;;5129087;27;20042;-77
2022/03/17 06:38:58;;;;;;;67.72;44.85;;;;;;;;;;5126016;27;20489;-75
2022/03/17 06:41:25;;;;;;;65.07;47.30;;;;;;;;;;5134009;27;20035;-77
2022/03/17 06:43:51;;;;;;;59.13;45.92;;;;;;;;;;5135392;27;20034;-75
2022/03/17 06:46:17;;;;;;;64.90;45.88;;;;;;;;;;5133680;27;20023;-76
2022/03/17 06:48:43;;;;;;;61.08;46.20;;;;;;;;;;5133992;27;20026;-78
2022/03/17 06:51:09;;;;;;;67.32;45.58;;;;;;;;;;5114595;27;20015;-75
2022/03/17 06:53:35;;;;;;;65.93;48.67;;;;;;;;;;5115444;27;20038;-77
2022/03/17 06:56:01;;;;;;;69.53;48.13;;;;;;;;;;5116869;27;20027;-78
2022/03/17 06:58:27;;;;;;;61.92;48.35;;;;;;;;;;5112818;27;20029;-75
2022/03/17 07:00:53;;;;;;;62.85;45.17;;;;;;;;;;5134405;27;20485;-76
2022/03/17 07:03:19;;;;;;;64.30;47.78;;;;;;;;;;5113686;27;20043;-78
2022/03/17 07:05:45;;;;;;;60.53;44.70;;;;;;;;;;5113154;28;20023;-77
2022/03/17 07:08:11;;;;;;;69.97;47.90;;;;;;;;;;5094824;28;20022;-77
2022/03/17 07:10:37;;;;;;;79.53;55.63;;;;;;;;;;5113221;28;20100;-77
2022/03/17 07:13:03;;;;;;;74.47;52.10;;;;;;;;;;5113482;28;20075;-77
2022/03/17 07:15:29;;;;;;;71.50;50.45;;;;;;;;;;5113945;28;20027;-76
2022/03/17 07:17:55;;;;;;;68.53;52.50;;;;;;;;;;5095281;28;20424;-76
2022/03/17 07:20:23;;;;;;;77.80;52.60;;;;;;;;;;5094587;28;20081;-79
2022/03/17 07:22:50;;;;;;;67.50;50.63;;;;;;;;;;5093944;28;20524;-77
2022/03/17 07:25:20;;;;;;;68.18;46.53;;;;;;;;;;5093907;28;20024;-78
2022/03/17 07:27:47;;;;;;;80.13;47.25;;;;;;;;;;5093545;28;20093;-77
2022/03/17 07:30:22;;;;;;;68.90;43.95;;;;;;;;;;5093463;28;20024;-77
2022/03/17 07:32:50;;;;;;;61.38;44.58;;;;;;;;;;5093613;28;20045;-76
2022/03/17 07:35:17;;;;;;;69.00;46.22;;;;;;;;;;5093454;28;20110;-77
2022/03/17 07:37:43;;;;;;;67.95;48.85;;;;;;;;;;5113103;28;20035;-76
2022/03/17 07:40:10;;;;;;;66.88;48.85;;;;;;;;;;5113244;28;20156;-77
2022/03/17 07:42:36;;;;;;;55.92;40.88;;;;;;;;;;5095103;28;20382;-76
2022/03/17 07:45:02;;;;;;;69.22;44.08;;;;;;;;;;5094943;28;20035;-76
2022/03/17 07:47:28;;;;;;;61.47;44.40;;;;;;;;;;5112316;28;20016;-77
2022/03/17 07:49:54;;;;;;;60.15;45.15;;;;;;;;;;5094944;28;20359;-77
2022/03/17 07:52:20;;;;;;;67.03;47.22;;;;;;;;;;5094771;28;20042;-77
2022/03/17 07:54:47;;;;;;;69.22;45.25;;;;;;;;;;5113048;28;20027;-77
2022/03/17 07:57:13;;;;;;;62.63;45.17;;;;;;;;;;5112775;28;20035;-76
2022/03/17 07:59:39;;;;;;;70.93;48.75;;;;;;;;;;5112593;28;20024;-76
2022/03/17 08:02:06;;;;;;;82.93;48.67;;;;;;;;;;5094681;28;20394;-77
2022/03/17 08:04:32;;;;;;;68.32;46.50;;;;;;;;;;5113105;28;20028;-76
2022/03/17 08:07:00;;;;;;;63.70;47.13;;;;;;;;;;5113110;28;20026;-78
2022/03/17 08:09:26;;;;;;;59.22;43.28;;;;;;;;;;5094691;28;20106;-77
2022/03/17 08:11:53;;;;;;;63.28;44.53;;;;;;;;;;5094428;28;20123;-76
2022/03/17 08:14:19;;;;;;;65.15;47.42;;;;;;;;;;5112933;28;20020;-77
2022/03/17 08:16:45;;;;;;;74.70;55.97;;;;;;;;;;5094323;28;20081;-76
2022/03/17 08:19:11;;;;;;;74.20;52.10;;;;;;;;;;5112243;28;20022;-78
2022/03/17 08:21:39;;;;;;;59.40;44.15;;;;;;;;;;5112490;28;20036;-77
2022/03/17 08:24:05;;;;;;;60.20;44.35;;;;;;;;;;5094164;28;20107;-77
2022/03/17 08:26:31;;;;;;;58.47;43.20;;;;;;;;;;5094178;28;20051;-77
2022/03/17 08:28:57;;;;;;;63.08;45.85;;;;;;;;;;5101577;27;20032;-75
2022/03/17 08:31:23;;;;;;;76.07;47.83;;;;;;;;;;5114653;27;20019;-77
2022/03/17 08:33:50;;;;;;;66.70;45.47;;;;;;;;;;5114432;27;20019;-77
2022/03/17 08:36:16;;;;;;;63.10;44.25;;;;;;;;;;5114299;27;20035;-76
2022/03/17 08:38:42;;;;;;;62.80;44.33;;;;;;;;;;5114277;27;20050;-77
2022/03/17 08:41:08;;;;;;;58.75;40.50;;;;;;;;;;5132497;27;20111;-76
2022/03/17 08:43:34;;;;;;;61.95;43.00;;;;;;;;;;5132880;27;20034;-77
2022/03/17 08:51:30;;;;;;;56.42;39.63;;;;;;;;;;5132535;28;20035;-77
2022/03/17 08:53:56;;;;;;;52.72;39.00;;;;;;;;;;5132365;28;20015;-77
2022/03/17 08:56:22;;;;;;;73.20;42.05;;;;;;;;;;5132660;28;20020;-77
2022/03/17 08:58:48;;;;;;;58.92;40.15;;;;;;;;;;5134868;27;20023;-76
2022/03/17 09:01:14;;;;;;;60.60;40.78;;;;;;;;;;5136736;27;20027;-76
2022/03/17 09:03:40;;;;;;;51.67;40.85;;;;;;;;;;5118189;27;20027;-77
2022/03/17 09:06:07;;;;;;;54.65;40.17;;;;;;;;;;5136479;27;20416;-77
2022/03/17 09:08:33;;;;;;;59.67;37.38;;;;;;;;;;5137048;27;20100;-77
2022/03/17 09:10:59;;;;;;;48.78;37.17;;;;;;;;;;5136691;27;20031;-77
2022/03/17 09:13:26;;;;;;;48.97;39.17;;;;;;;;;;5136720;27;20029;-77
2022/03/17 09:15:53;;;;;;;56.50;40.33;;;;;;;;;;5137041;27;20033;-77
2022/03/17 09:18:20;;;;;;;57.85;39.97;;;;;;;;;;5118195;27;20019;-77
2022/03/17 09:20:46;;;;;;;66.03;39.15;;;;;;;;;;5118117;27;20070;-76
2022/03/17 09:23:13;;;;;;;71.00;39.85;;;;;;;;;;5118009;27;20027;-77
2022/03/17 09:25:39;;;;;;;56.08;39.78;;;;;;;;;;5118077;27;20020;-77
2022/03/17 09:28:05;;;;;;;57.47;39.75;;;;;;;;;;5135973;27;20026;-77
2022/03/17 09:30:32;;;;;;;57.20;40.40;;;;;;;;;;5115610;28;20020;-76
2022/03/17 09:32:59;;;;;;;52.92;37.28;;;;;;;;;;5097160;28;20024;-76
2022/03/17 09:35:25;;;;;;;54.33;39.33;;;;;;;;;;5097370;28;20424;-77
2022/03/17 09:37:51;;;;;;;60.78;37.35;;;;;;;;;;5097324;28;20171;-76
2022/03/17 09:40:17;;;;;;;49.05;38.50;;;;;;;;;;5115377;28;20169;-76
2022/03/17 09:42:44;;;;;;;50.75;37.92;;;;;;;;;;5097248;28;20023;-76
2022/03/17 09:45:10;;;;;;;58.40;41.40;;;;;;;;;;5097014;28;20051;-77
2022/03/17 09:47:37;;;;;;;59.25;41.70;;;;;;;;;;5115197;28;20015;-75
2022/03/17 09:50:04;;;;;;;56.72;40.22;;;;;;;;;;5115126;28;20047;-76
2022/03/17 09:52:32;;;;;;;53.83;41.08;;;;;;;;;;5115366;28;20512;-77
2022/03/17 09:54:58;;;;;;;60.35;42.55;;;;;;;;;;5097027;28;20484;-76
2022/03/17 09:57:24;;;;;;;59.03;42.45;;;;;;;;;;5114949;28;20488;-77
2022/03/17 09:59:57;;;;;;;62.17;46.75;;;;;;;;;;5096643;28;20110;-77
2022/03/17 10:02:24;;;;;;;61.10;39.15;;;;;;;;;;5114992;28;20470;-76
2022/03/17 10:04:50;;;;;;;56.35;38.55;;;;;;;;;;5096877;28;20092;-78
2022/03/17 10:07:18;;;;;;;48.28;35.75;;;;;;;;;;5115143;28;20470;-76
2022/03/17 10:09:44;;;;;;;46.65;34.70;;;;;;;;;;5113912;28;20051;-78
2022/03/17 10:12:11;;;;;;;53.10;38.17;;;;;;;;;;5096704;28;20047;-77
2022/03/17 10:14:39;;;;;;;48.15;37.65;;;;;;;;;;5114584;28;20156;-77
2022/03/17 10:17:06;;;;;;;72.10;37.60;;;;;;;;;;5114613;28;20047;-77
2022/03/17 10:19:33;;;;;;;48.10;34.03;;;;;;;;;;5114852;28;20016;-78
2022/03/17 10:22:12;;;;;;;49.25;37.40;;;;;;;;;;5115159;28;20035;-77
2022/03/17 10:24:39;;;;;;;53.33;39.95;;;;;;;;;;5096524;28;20024;-77
2022/03/17 10:27:05;;;;;;;71.30;49.30;;;;;;;;;;5114181;28;20102;-76
2022/03/17 10:29:31;;;;;;;67.60;50.78;;;;;;;;;;5108566;27;20063;-76
2022/03/17 10:32:24;;;;;;;71.80;52.22;;;;;;;;;;5116709;27;20065;-77
2022/03/17 10:34:51;;;;;;;72.03;54.58;;;;;;;;;;5130644;27;20039;-77
2022/03/17 10:37:19;;;;;;;72.85;54.90;;;;;;;;;;5117124;27;20114;-77
2022/03/17 10:39:49;;;;;;;83.45;57.65;;;;;;;;;;5116326;27;20043;-76
2022/03/17 10:42:16;;;;;;;71.95;50.55;;;;;;;;;;5134768;27;20024;-78
2022/03/17 10:44:45;;;;;;;73.50;53.47;;;;;;;;;;5116828;27;20020;-77
2022/03/17 10:47:11;;;;;;;77.38;51.03;;;;;;;;;;5116492;27;20742;-77
2022/03/17 10:49:38;;;;;;;84.10;56.33;;;;;;;;;;5134850;27;20027;-77
2022/03/17 10:52:04;;;;;;;79.97;53.58;;;;;;;;;;5116509;27;20020;-77
2022/03/17 10:54:31;;;;;;;82.95;58.78;;;;;;;;;;5116008;27;20452;-77
2022/03/17 10:57:04;;;;;;;82.40;57.30;;;;;;;;;;5115405;27;20019;-77
2022/03/17 10:59:38;;;;;;;66.03;47.88;;;;;;;;;;5134627;27;20023;-77
2022/03/17 11:02:07;;;;;;;71.07;40.17;;;;;;;;;;5115963;27;20039;-77
2022/03/17 11:04:34;;;;;;;58.30;39.58;;;;;;;;;;5134192;27;20558;-77
2022/03/17 11:07:00;;;;;;;47.63;32.40;;;;;;;;;;5134680;27;20027;-78
2022/03/17 11:09:26;;;;;;;38.33;25.67;;;;;;;;;;5115883;27;20034;-77
2022/03/17 11:11:53;;;;;;;39.35;29.10;;;;;;;;;;5116036;27;20046;-77
2022/03/17 11:14:22;;;;;;;37.35;25.58;;;;;;;;;;5134508;27;20027;-78
2022/03/17 11:16:50;;;;;;;33.30;23.77;;;;;;;;;;5115821;27;20054;-77
2022/03/17 11:19:21;;;;;;;38.38;22.52;;;;;;;;;;5115598;27;20023;-77
2022/03/17 11:21:49;;;;;;;27.25;20.80;;;;;;;;;;5133756;27;20034;-78
2022/03/17 11:24:19;;;;;;;33.13;21.08;;;;;;;;;;5115518;27;20019;-76
2022/03/17 11:26:46;;;;;;;30.30;20.80;;;;;;;;;;5115656;27;20106;-76
2022/03/17 11:29:13;;;;;;;34.20;22.00;;;;;;;;;;5124035;27;20023;-77
2022/03/17 11:31:57;;;;;;;34.35;24.58;;;;;;;;;;5095353;28;20022;-78
2022/03/17 11:34:38;;;;;;;36.40;25.10;;;;;;;;;;5095068;28;20027;-78
2022/03/17 11:37:20;;;;;;;34.20;24.77;;;;;;;;;;5095051;28;20073;-77
2022/03/17 11:40:01;;;;;;;36.80;26.70;;;;;;;;;;5112928;28;20062;-77
2022/03/17 11:42:34;;;;;;;52.65;25.15;;;;;;;;;;5112761;28;20073;-78
2022/03/17 11:45:21;;;;;;;35.17;25.70;;;;;;;;;;5094761;28;20107;-77
2022/03/17 11:47:47;;;;;;;33.38;24.25;;;;;;;;;;5077186;28;20023;-78
2022/03/17 11:50:40;;;;;;;31.85;23.55;;;;;;;;;;5094720;28;20469;-78
2022/03/17 11:53:09;;;;;;;34.08;26.00;;;;;;;;;;5112921;28;20026;-78
2022/03/17 11:55:51;;;;;;;45.08;26.50;;;;;;;;;;5094692;28;20032;-79
2022/03/17 11:58:20;;;;;;;35.28;23.48;;;;;;;;;;5094319;28;20115;-75
2022/03/17 12:00:52;;;;;;;37.78;23.67;;;;;;;;;;5094280;28;20092;-76
2022/03/17 12:03:28;;;;;;;29.80;22.30;;;;;;;;;;5094498;28;20069;-75
2022/03/17 12:06:04;;;;;;;35.72;24.75;;;;;;;;;;5094556;28;20028;-75
2022/03/17 12:08:35;;;;;;;41.58;24.38;;;;;;;;;;5094525;28;20034;-76
2022/03/17 12:11:06;;;;;;;31.38;22.63;;;;;;;;;;5094234;28;20055;-76
2022/03/17 12:13:34;;;;;;;34.08;21.52;;;;;;;;;;5094031;28;20435;-75
2022/03/17 12:16:01;;;;;;;35.42;21.23;;;;;;;;;;5094192;28;20023;-76
2022/03/17 12:18:31;;;;;;;23.73;17.85;;;;;;;;;;5094232;28;20026;-77
2022/03/17 12:20:57;;;;;;;27.77;19.25;;;;;;;;;;5094042;28;20038;-77
2022/03/17 12:23:42;;;;;;;24.77;19.42;;;;;;;;;;5094009;28;20535;-75
2022/03/17 12:26:08;;;;;;;27.80;19.63;;;;;;;;;;5112031;28;20026;-79
2022/03/17 12:28:34;;;;;;;28.60;19.30;;;;;;;;;;5111543;28;20027;-79
2022/03/17 12:31:00;;;;;;;29.05;20.75;;;;;;;;;;5111135;28;20020;-78
2022/03/17 12:33:26;;;;;;;31.95;21.42;;;;;;;;;;5110707;28;20378;-79
2022/03/17 12:36:05;;;;;;;36.40;22.77;;;;;;;;;;5096011;27;20023;-80
2022/03/17 12:38:34;;;;;;;31.60;21.98;;;;;;;;;;5111490;28;20020;-78
2022/03/17 12:41:00;;;;;;;34.95;21.83;;;;;;;;;;5111434;28;20027;-78
2022/03/17 12:43:26;;;;;;;38.72;21.65;;;;;;;;;;5093434;28;20039;-80
2022/03/17 12:45:53;;;;;;;32.50;20.95;;;;;;;;;;5096215;28;20394;-79
2022/03/17 12:48:19;;;;;;;32.20;22.95;;;;;;;;;;5111187;28;20153;-80
2022/03/17 12:50:46;;;;;;;34.75;24.75;;;;;;;;;;5093041;28;20023;-80
2022/03/17 12:53:12;;;;;;;36.35;22.80;;;;;;;;;;5111528;28;20470;-79
2022/03/17 12:55:39;;;;;;;34.50;22.08;;;;;;;;;;5093272;28;20492;-78
2022/03/17 12:58:05;;;;;;;28.83;20.58;;;;;;;;;;5111730;28;20050;-77
2022/03/17 13:00:32;;;;;;;37.38;23.70;;;;;;;;;;5114200;28;20412;-78
2022/03/17 13:02:59;;;;;;;38.33;23.33;;;;;;;;;;5114121;28;20065;-77
2022/03/17 13:08:11;;;;;;;30.35;21.20;;;;;;;;;;5111505;28;20034;-78
2022/03/17 13:16:08;;;;;;;27.90;21.05;;;;;;;;;;5111529;28;20513;-77
2022/03/17 13:18:50;;;;;;;37.10;19.27;;;;;;;;;;5111851;28;20449;-78
2022/03/17 13:21:18;;;;;;;42.75;25.70;;;;;;;;;;5093260;28;20039;-78
2022/03/17 13:23:44;;;;;;;47.85;33.47;;;;;;;;;;5116525;28;20019;-78
2022/03/17 13:26:10;;;;;;;31.23;21.52;;;;;;;;;;5111586;28;20026;-79
2022/03/17 13:28:36;;;;;;;31.45;20.67;;;;;;;;;;5102294;28;20034;-77
2022/03/17 13:31:03;;;;;;;40.97;23.65;;;;;;;;;;5092619;28;20019;-80
2022/03/17 13:33:30;;;;;;;32.58;23.45;;;;;;;;;;5113481;28;20052;-78
2022/03/17 13:35:57;;;;;;;37.17;24.58;;;;;;;;;;5111208;28;20024;-78
2022/03/17 13:38:30;;;;;;;37.20;23.80;;;;;;;;;;5110768;28;20027;-78
2022/03/17 13:40:57;;;;;;;32.10;23.33;;;;;;;;;;5111004;28;20123;-78
2022/03/17 13:43:30;;;;;;;31.60;24.83;;;;;;;;;;5092642;28;20569;-78
2022/03/17 13:45:57;;;;;;;40.20;26.67;;;;;;;;;;5114713;28;20024;-78
2022/03/17 13:48:24;;;;;;;39.22;28.20;;;;;;;;;;5114653;28;20509;-79
2022/03/17 13:50:50;;;;;;;41.47;29.52;;;;;;;;;;5117050;27;20539;-78
2022/03/17 13:53:18;;;;;;;40.95;28.55;;;;;;;;;;5096408;28;20024;-77
2022/03/17 13:55:44;;;;;;;40.67;26.83;;;;;;;;;;5096517;28;20086;-78
2022/03/17 13:58:11;;;;;;;37.13;26.08;;;;;;;;;;5117375;27;20012;-79
2022/03/17 14:00:37;;;;;;;40.10;29.25;;;;;;;;;;5121513;27;20148;-78
2022/03/17 14:03:12;;;;;;;38.70;27.85;;;;;;;;;;5134967;27;20015;-79
2022/03/17 14:05:57;;;;;;;37.70;26.88;;;;;;;;;;5116549;27;20381;-79
2022/03/17 14:08:23;;;;;;;38.22;28.75;;;;;;;;;;5116744;27;20477;-78
2022/03/17 14:10:50;;;;;;;36.58;26.45;;;;;;;;;;5135429;27;20011;-77
2022/03/17 14:13:17;;;;;;;37.80;28.35;;;;;;;;;;5135369;27;20323;-78
2022/03/17 14:15:43;;;;;;;41.08;31.05;;;;;;;;;;5117289;27;20019;-78
2022/03/17 14:18:10;;;;;;;36.65;28.02;;;;;;;;;;5116521;27;20023;-78
2022/03/17 14:20:36;;;;;;;52.83;32.78;;;;;;;;;;5134662;27;20068;-78
2022/03/17 14:25:47;;;;;;;43.17;31.45;;;;;;;;;;5135194;27;20397;-78
2022/03/17 14:28:13;;;;;;;39.45;28.65;;;;;;;;;;5135283;27;20019;-77
2022/03/17 14:30:39;;;;;;;43.83;31.85;;;;;;;;;;5133440;27;20054;-78
2022/03/17 14:33:05;;;;;;;37.22;28.90;;;;;;;;;;5134802;27;20015;-78
2022/03/17 14:35:33;;;;;;;44.20;30.52;;;;;;;;;;5135148;27;20023;-79
2022/03/17 14:38:00;;;;;;;42.17;30.52;;;;;;;;;;5123117;27;20015;-77
2022/03/17 14:40:26;;;;;;;42.85;30.45;;;;;;;;;;5124254;27;20046;-78
2022/03/17 14:42:52;;;;;;;48.78;31.90;;;;;;;;;;5121775;27;20020;-78
2022/03/17 14:45:18;;;;;;;36.80;28.98;;;;;;;;;;5125940;27;20011;-78